createdAt,value
2023-12-28T00:00:41.548Z,4.50
2023-12-28T00:03:31.098Z,7.10
2023-12-28T00:05:59.064Z,5.50
2023-12-28T00:08:27.138Z,6.80
2023-12-28T00:10:55.332Z,5.60
2023-12-28T00:15:50.769Z,4.80
2023-12-28T00:18:23.233Z,5.80
2023-12-28T00:20:51.668Z,5.10
2023-12-28T00:23:21.304Z,7.40
2023-12-28T00:25:49.868Z,6.50
2023-12-28T00:28:18.564Z,5.90
2023-12-28T00:30:46.534Z,6.70
2023-12-28T00:33:14.584Z,6.10
2023-12-28T00:35:42.859Z,8.10
2023-12-28T00:38:11.771Z,7.60
2023-12-28T00:40:39.500Z,6.20
2023-12-28T00:43:08.308Z,6.80
2023-12-28T00:45:36.156Z,6.10
2023-12-28T00:48:04.979Z,6.20
2023-12-28T00:50:33.440Z,5.90
2023-12-28T00:53:01.856Z,6.70
2023-12-28T00:55:30.998Z,4.10
2023-12-28T00:57:59.407Z,6.60
2023-12-28T01:00:27.947Z,10.30
2023-12-28T01:02:55.846Z,7.60
2023-12-28T01:05:27.110Z,6.60
2023-12-28T01:07:55.348Z,5.40
2023-12-28T01:10:23.539Z,6.30
2023-12-28T01:12:51.719Z,7.00
2023-12-28T01:15:21.700Z,6.50
2023-12-28T01:17:50.392Z,6.90
2023-12-28T01:20:18.117Z,6.40
2023-12-28T01:22:45.945Z,6.80
2023-12-28T01:27:42.747Z,8.00
2023-12-28T01:30:11.070Z,6.90
2023-12-28T01:32:39.242Z,8.50
2023-12-28T01:35:07.259Z,8.90
2023-12-28T01:37:35.185Z,9.40
2023-12-28T01:40:03.666Z,7.40
2023-12-28T01:42:32.413Z,8.90
2023-12-28T01:45:00.824Z,8.30
2023-12-28T01:47:30.708Z,10.50
2023-12-28T01:50:01.125Z,8.50
2023-12-28T01:52:30.916Z,8.20
2023-12-28T01:54:59.746Z,11.10
2023-12-28T01:57:28.795Z,8.20
2023-12-28T01:59:56.870Z,8.50
2023-12-28T02:02:25.410Z,8.00
2023-12-28T02:04:53.315Z,7.20
2023-12-28T02:09:50.741Z,10.60
2023-12-28T02:12:18.867Z,8.90
2023-12-28T02:14:47.843Z,9.50
2023-12-28T02:17:24.179Z,9.70
2023-12-28T02:19:55.178Z,9.70
2023-12-28T02:22:26.494Z,8.30
2023-12-28T02:25:03.661Z,7.20
2023-12-28T02:27:32.417Z,10.10
2023-12-28T02:30:01.624Z,11.50
2023-12-28T02:32:43.768Z,10.90
2023-12-28T02:35:18.878Z,10.20
2023-12-28T02:37:53.063Z,10.40
2023-12-28T02:40:23.672Z,7.90
2023-12-28T02:42:52.307Z,8.10
2023-12-28T02:45:21.104Z,8.30
2023-12-28T02:47:49.602Z,6.90
2023-12-28T02:50:17.633Z,7.90
2023-12-28T02:55:12.939Z,9.80
2023-12-28T02:57:41.472Z,9.30
2023-12-28T03:00:11.587Z,9.20
2023-12-28T03:02:40.737Z,9.10
2023-12-28T03:05:09.169Z,9.60
2023-12-28T03:07:38.093Z,9.20
2023-12-28T03:10:07.765Z,8.60
2023-12-28T03:12:35.839Z,12.00
2023-12-28T03:15:04.746Z,9.10
2023-12-28T03:17:34.078Z,7.30
2023-12-28T03:20:02.839Z,8.30
2023-12-28T03:22:31.164Z,7.80
2023-12-28T03:24:59.579Z,7.90
2023-12-28T03:27:28.059Z,6.70
2023-12-28T03:29:55.916Z,8.20
2023-12-28T03:34:51.991Z,7.70
2023-12-28T03:37:20.279Z,7.90
2023-12-28T03:39:49.040Z,6.90
2023-12-28T03:42:16.924Z,7.20
2023-12-28T03:44:45.143Z,7.90
2023-12-28T03:49:41.234Z,6.40
2023-12-28T03:52:09.421Z,8.40
2023-12-28T03:54:37.405Z,7.40
2023-12-28T03:57:06.490Z,9.60
2023-12-28T03:59:34.427Z,8.70
2023-12-28T04:02:02.216Z,6.30
2023-12-28T04:04:30.995Z,6.80
2023-12-28T04:06:59.713Z,6.30
2023-12-28T04:09:27.595Z,8.10
2023-12-28T04:11:55.335Z,7.60
2023-12-28T04:14:23.118Z,7.80
2023-12-28T04:16:51.367Z,7.50
2023-12-28T04:19:21.380Z,7.30
2023-12-28T04:21:49.411Z,6.90
2023-12-28T04:24:17.538Z,6.50
2023-12-28T04:26:46.096Z,6.10
2023-12-28T04:29:13.896Z,6.40
2023-12-28T04:31:45.741Z,8.30
2023-12-28T04:34:14.187Z,9.00
2023-12-28T04:37:02.402Z,7.70
2023-12-28T04:39:30.679Z,5.10
2023-12-28T04:41:58.379Z,5.80
2023-12-28T04:44:27.331Z,6.10
2023-12-28T04:46:55.134Z,5.80
2023-12-28T04:51:52.140Z,7.50
2023-12-28T04:54:20.296Z,7.00
2023-12-28T04:56:48.642Z,6.60
2023-12-28T04:59:16.950Z,6.50
2023-12-28T05:01:45.756Z,6.20
2023-12-28T05:04:17.712Z,6.70
2023-12-28T05:06:46.465Z,5.10
2023-12-28T05:09:15.069Z,6.80
2023-12-28T05:11:43.398Z,6.30
2023-12-28T05:14:11.405Z,8.30
2023-12-28T05:16:39.476Z,9.20
2023-12-28T05:21:35.149Z,6.70
2023-12-28T05:24:03.750Z,6.70
2023-12-28T05:26:32.240Z,6.00
2023-12-28T05:29:01.865Z,5.50
2023-12-28T05:31:29.842Z,7.40
2023-12-28T05:34:00.010Z,6.70
2023-12-28T05:36:28.171Z,6.60
2023-12-28T05:38:57.138Z,6.70
2023-12-28T05:41:24.880Z,5.70
2023-12-28T05:43:52.865Z,6.10
2023-12-28T05:46:20.688Z,19.30
2023-12-28T05:48:49.141Z,5.80
2023-12-28T05:51:17.681Z,6.20
2023-12-28T05:53:45.939Z,7.80
2023-12-28T05:56:14.143Z,9.70
2023-12-28T05:58:42.700Z,6.80
2023-12-28T06:01:11.270Z,7.40
2023-12-28T06:03:39.207Z,5.80
2023-12-28T06:06:07.254Z,7.20
2023-12-28T06:11:03.742Z,7.80
2023-12-28T06:13:31.489Z,7.90
2023-12-28T06:16:00.479Z,9.60
2023-12-28T06:18:29.293Z,10.00
2023-12-28T06:20:57.533Z,10.30
2023-12-28T06:25:53.602Z,7.60
2023-12-28T06:28:22.021Z,8.10
2023-12-28T06:30:51.134Z,7.10
2023-12-28T06:33:19.017Z,9.20
2023-12-28T06:38:14.729Z,10.50
2023-12-28T06:40:42.657Z,8.30
2023-12-28T06:43:10.822Z,6.30
2023-12-28T06:45:38.686Z,5.70
2023-12-28T06:48:06.549Z,7.00
2023-12-28T06:50:35.280Z,6.50
2023-12-28T06:53:04.236Z,5.50
2023-12-28T06:55:32.274Z,7.60
2023-12-28T06:58:01.354Z,7.60
2023-12-28T07:00:29.928Z,6.60
2023-12-28T07:02:57.965Z,5.70
2023-12-28T07:07:53.989Z,6.00
2023-12-28T07:10:21.795Z,4.70
2023-12-28T07:12:49.508Z,5.50
2023-12-28T07:17:45.873Z,6.90
2023-12-28T07:20:14.052Z,4.50
2023-12-28T07:22:42.602Z,3.40
2023-12-28T07:25:11.240Z,4.30
2023-12-28T07:27:39.746Z,4.30
2023-12-28T07:30:09.747Z,5.70
2023-12-28T07:32:38.230Z,6.50
2023-12-28T07:35:06.399Z,5.80
2023-12-28T07:37:35.286Z,5.20
2023-12-28T07:40:04.618Z,7.60
2023-12-28T07:42:32.932Z,6.30
2023-12-28T07:45:00.983Z,6.00
2023-12-28T07:47:29.079Z,5.30
2023-12-28T07:49:58.230Z,6.70
2023-12-28T07:52:26.245Z,7.30
2023-12-28T07:57:22.509Z,6.70
2023-12-28T07:59:51.554Z,7.60
2023-12-28T08:02:21.680Z,5.90
2023-12-28T08:04:51.071Z,8.00
2023-12-28T08:07:18.945Z,7.40
2023-12-28T08:12:14.925Z,4.80
2023-12-28T08:14:43.571Z,5.90
2023-12-28T08:17:11.517Z,5.10
2023-12-28T08:19:39.732Z,5.10
2023-12-28T08:22:08.627Z,3.60
2023-12-28T08:24:37.620Z,3.80
2023-12-28T08:27:06.632Z,5.60
2023-12-28T08:29:35.283Z,6.30
2023-12-28T08:32:03.623Z,3.40
2023-12-28T08:34:31.733Z,3.80
2023-12-28T08:37:00.656Z,4.60
2023-12-28T08:39:28.713Z,3.60
2023-12-28T08:41:57.216Z,4.60
2023-12-28T08:44:25.303Z,5.20
2023-12-28T08:46:53.146Z,7.50
2023-12-28T08:49:21.105Z,5.50
2023-12-28T08:51:49.186Z,5.70
2023-12-28T08:54:17.204Z,5.70
2023-12-28T08:56:45.747Z,8.90
2023-12-28T08:59:14.553Z,6.40
2023-12-28T09:01:42.493Z,5.70
2023-12-28T09:04:10.910Z,5.80
2023-12-28T09:06:39.419Z,4.90
2023-12-28T09:09:07.264Z,4.80
2023-12-28T09:11:35.072Z,4.90
2023-12-28T09:14:03.016Z,5.50
2023-12-28T09:16:30.978Z,5.20
2023-12-28T09:18:58.952Z,3.60
2023-12-28T09:21:27.551Z,5.00
2023-12-28T09:23:55.783Z,6.30
2023-12-28T09:26:23.636Z,5.50
2023-12-28T09:28:52.181Z,4.80
2023-12-28T09:31:20.062Z,4.50
2023-12-28T09:33:48.116Z,4.40
2023-12-28T09:36:16.737Z,4.80
2023-12-28T09:38:45.207Z,5.30
2023-12-28T09:41:17.660Z,4.80
2023-12-28T09:43:57.928Z,4.90
2023-12-28T09:46:27.900Z,4.40
2023-12-28T09:48:58.958Z,6.70
2023-12-28T09:51:27.279Z,5.30
2023-12-28T09:53:55.751Z,4.80
2023-12-28T09:56:27.306Z,5.20
2023-12-28T09:58:58.375Z,3.10
2023-12-28T10:01:26.584Z,3.50
2023-12-28T10:03:56.550Z,4.90
2023-12-28T10:06:24.483Z,2.80
2023-12-28T10:08:52.566Z,3.30
2023-12-28T10:11:20.765Z,3.20
2023-12-28T10:13:52.188Z,3.40
2023-12-28T10:16:19.895Z,3.20
2023-12-28T10:18:48.220Z,3.80
2023-12-28T10:21:16.280Z,3.00
2023-12-28T10:23:44.753Z,3.30
2023-12-28T10:26:13.626Z,3.40
2023-12-28T10:28:41.877Z,3.50
2023-12-28T10:31:10.316Z,3.70
2023-12-28T10:33:39.615Z,2.70
2023-12-28T10:36:09.584Z,2.90
2023-12-28T10:38:38.986Z,3.20
2023-12-28T10:41:08.960Z,2.60
2023-12-28T10:43:48.436Z,2.70
2023-12-28T10:46:31.382Z,3.10
2023-12-28T10:49:23.026Z,2.70
2023-12-28T10:51:54.316Z,3.70
2023-12-28T10:55:08.236Z,3.00
2023-12-28T10:57:49.986Z,4.20
2023-12-28T11:00:24.103Z,3.90
2023-12-28T11:02:59.937Z,3.50
2023-12-28T11:05:28.584Z,3.30
2023-12-28T11:07:59.478Z,3.90
2023-12-28T11:10:29.735Z,2.50
2023-12-28T11:12:58.678Z,3.00
2023-12-28T11:15:29.773Z,2.90
2023-12-28T11:17:58.247Z,4.10
2023-12-28T11:20:27.228Z,2.40
2023-12-28T11:22:56.973Z,3.30
2023-12-28T11:25:31.618Z,3.00
2023-12-28T11:28:01.533Z,3.80
2023-12-28T11:30:29.525Z,3.20
2023-12-28T11:32:59.541Z,3.10
2023-12-28T11:35:39.522Z,3.70
2023-12-28T11:38:12.105Z,3.40
2023-12-28T11:40:45.423Z,4.50
2023-12-28T11:43:22.704Z,3.00
2023-12-28T11:45:53.084Z,4.20
2023-12-28T11:48:28.117Z,3.00
2023-12-28T11:51:04.854Z,2.80
2023-12-28T11:53:32.638Z,3.50
2023-12-28T11:56:04.739Z,2.90
2023-12-28T11:58:34.293Z,2.60
2023-12-28T12:01:04.153Z,2.50
2023-12-28T12:03:32.613Z,4.00
2023-12-28T12:06:01.006Z,3.70
2023-12-28T12:08:29.531Z,4.10
2023-12-28T12:11:09.172Z,3.10
2023-12-28T12:13:38.335Z,2.60
2023-12-28T12:16:08.013Z,3.10
2023-12-28T12:18:37.549Z,3.40
2023-12-28T12:21:07.656Z,3.50
2023-12-28T12:23:36.165Z,3.30
2023-12-28T12:26:07.786Z,3.40
2023-12-28T12:28:36.706Z,6.40
2023-12-28T12:31:05.964Z,6.50
2023-12-28T12:33:34.699Z,3.80
2023-12-28T12:36:03.700Z,3.30
2023-12-28T12:38:32.582Z,3.30
2023-12-28T12:41:00.496Z,5.00
2023-12-28T12:43:28.567Z,3.20
2023-12-28T12:45:56.988Z,3.10
2023-12-28T12:48:25.558Z,3.30
2023-12-28T12:50:53.417Z,5.00
2023-12-28T12:53:22.603Z,2.60
2023-12-28T12:55:56.005Z,5.60
2023-12-28T12:58:24.625Z,6.40
2023-12-28T13:00:54.003Z,3.90
2023-12-28T13:03:22.166Z,4.30
2023-12-28T13:05:50.937Z,2.70
2023-12-28T13:08:19.492Z,2.70
2023-12-28T13:10:47.272Z,5.10
2023-12-28T13:13:15.886Z,3.40
2023-12-28T13:15:43.868Z,4.40
2023-12-28T13:18:13.046Z,2.90
2023-12-28T13:20:40.785Z,2.30
2023-12-28T13:23:09.145Z,2.00
2023-12-28T13:25:37.147Z,6.20
2023-12-28T13:28:06.810Z,3.00
2023-12-28T13:30:35.077Z,3.20
2023-12-28T13:33:03.538Z,3.70
2023-12-28T13:35:35.047Z,3.00
2023-12-28T13:38:03.207Z,2.70
2023-12-28T13:40:34.318Z,2.70
2023-12-28T13:43:02.390Z,4.20
2023-12-28T13:45:30.605Z,13.60
2023-12-28T13:47:58.597Z,6.40
2023-12-28T13:50:26.890Z,10.80
2023-12-28T13:52:54.912Z,7.80
2023-12-28T13:55:23.129Z,5.00
2023-12-28T13:57:51.358Z,4.10
2023-12-28T14:00:20.267Z,4.70
2023-12-28T14:02:47.979Z,5.40
2023-12-28T14:05:16.380Z,3.90
2023-12-28T14:07:45.119Z,9.00
2023-12-28T14:10:13.006Z,4.60
2023-12-28T14:12:41.270Z,3.50
2023-12-28T14:15:10.177Z,5.40
2023-12-28T14:17:38.500Z,5.20
2023-12-28T14:20:09.774Z,7.20
2023-12-28T14:22:38.685Z,5.10
2023-12-28T14:25:07.373Z,6.70
2023-12-28T14:27:35.536Z,6.60
2023-12-28T14:30:04.929Z,7.90
2023-12-28T14:32:33.522Z,5.00
2023-12-28T14:35:02.096Z,5.50
2023-12-28T14:37:30.307Z,5.90
2023-12-28T14:39:58.158Z,6.60
2023-12-28T14:42:26.181Z,5.30
2023-12-28T14:44:54.276Z,6.80
2023-12-28T14:47:22.526Z,6.90
2023-12-28T14:49:51.150Z,8.20
2023-12-28T14:52:22.085Z,6.10
2023-12-28T14:54:51.880Z,10.60
2023-12-28T14:57:20.318Z,11.90
2023-12-28T14:59:48.458Z,10.90
2023-12-28T15:02:17.060Z,6.90
2023-12-28T15:04:46.038Z,6.60
2023-12-28T15:07:14.059Z,4.00
2023-12-28T15:09:42.710Z,6.70
2023-12-28T15:12:12.664Z,5.80
2023-12-28T15:14:40.828Z,7.60
2023-12-28T15:17:10.218Z,6.40
2023-12-28T15:19:39.574Z,7.60
2023-12-28T15:22:08.404Z,7.80
2023-12-28T15:24:36.830Z,5.90
2023-12-28T15:27:07.501Z,7.90
2023-12-28T15:29:36.954Z,6.10
2023-12-28T15:32:05.134Z,6.50
2023-12-28T15:34:33.134Z,4.70
2023-12-28T15:37:02.270Z,6.20
2023-12-28T15:39:30.481Z,5.40
2023-12-28T15:41:58.237Z,5.10
2023-12-28T15:44:26.053Z,5.80
2023-12-28T15:46:53.799Z,6.60
2023-12-28T15:49:22.533Z,6.40
2023-12-28T15:51:50.536Z,7.20
2023-12-28T15:54:18.581Z,5.30
2023-12-28T15:56:47.081Z,7.50
2023-12-28T15:59:14.856Z,4.00
2023-12-28T16:01:42.700Z,5.20
2023-12-28T16:04:10.647Z,5.50
2023-12-28T16:06:38.870Z,4.10
2023-12-28T16:09:07.540Z,5.70
2023-12-28T16:11:36.061Z,4.40
2023-12-28T16:14:04.449Z,4.80
2023-12-28T16:16:32.971Z,5.30
2023-12-28T16:19:01.724Z,8.60
2023-12-28T16:21:32.332Z,8.20
2023-12-28T16:24:00.471Z,6.70
2023-12-28T16:26:29.117Z,6.50
2023-12-28T16:28:57.528Z,6.30
2023-12-28T16:31:25.498Z,6.60
2023-12-28T16:33:53.444Z,7.20
2023-12-28T16:36:21.689Z,4.10
2023-12-28T16:38:49.484Z,4.40
2023-12-28T16:41:17.252Z,4.20
2023-12-28T16:43:45.209Z,3.20
2023-12-28T16:46:13.053Z,4.00
2023-12-28T16:48:41.572Z,8.60
2023-12-28T16:51:10.822Z,7.30
2023-12-28T16:53:38.659Z,6.80
2023-12-28T16:56:07.173Z,9.70
2023-12-28T16:58:35.316Z,7.30
2023-12-28T17:01:04.514Z,12.10
2023-12-28T17:03:34.842Z,7.00
2023-12-28T17:06:04.333Z,5.60
2023-12-28T17:08:32.271Z,5.20
2023-12-28T17:11:01.321Z,6.40
2023-12-28T17:13:29.904Z,5.10
2023-12-28T17:15:58.406Z,5.70
2023-12-28T17:18:26.725Z,7.90
2023-12-28T17:20:54.711Z,8.80
2023-12-28T17:23:42.997Z,6.80
2023-12-28T17:26:33.366Z,7.90
2023-12-28T17:29:08.602Z,9.10
2023-12-28T17:31:38.802Z,10.80
2023-12-28T17:34:10.163Z,7.20
2023-12-28T17:36:38.644Z,9.20
2023-12-28T17:39:11.992Z,7.20
2023-12-28T17:41:43.954Z,6.60
2023-12-28T17:44:19.607Z,6.20
2023-12-28T17:47:13.125Z,9.90
2023-12-28T17:49:49.095Z,18.40
2023-12-28T17:52:19.011Z,12.60
2023-12-28T17:54:47.718Z,7.10
2023-12-28T17:57:15.444Z,7.30
2023-12-28T17:59:43.472Z,7.40
2023-12-28T18:02:13.542Z,7.40
2023-12-28T18:04:41.353Z,5.60
2023-12-28T18:07:13.062Z,6.50
2023-12-28T18:09:42.017Z,6.20
2023-12-28T18:12:10.668Z,6.40
2023-12-28T18:14:38.827Z,9.90
2023-12-28T18:17:09.177Z,9.50
2023-12-28T18:19:37.134Z,7.50
2023-12-28T18:22:05.316Z,9.20
2023-12-28T18:24:33.415Z,6.70
2023-12-28T18:27:02.093Z,5.20
2023-12-28T18:29:29.992Z,5.10
2023-12-28T18:31:58.190Z,4.70
2023-12-28T18:34:26.289Z,6.10
2023-12-28T18:36:55.998Z,6.20
2023-12-28T18:39:28.721Z,5.30
2023-12-28T18:41:58.035Z,5.30
2023-12-28T18:44:33.643Z,6.00
2023-12-28T18:47:02.534Z,6.90
2023-12-28T18:49:30.290Z,4.40
2023-12-28T18:51:58.496Z,4.50
2023-12-28T18:54:26.393Z,5.10
2023-12-28T18:56:54.334Z,5.40
2023-12-28T18:59:22.465Z,6.00
2023-12-28T19:01:50.791Z,6.20
2023-12-28T19:04:19.318Z,7.00
2023-12-28T19:06:48.549Z,6.40
2023-12-28T19:09:17.114Z,6.50
2023-12-28T19:11:46.458Z,6.20
2023-12-28T19:14:15.683Z,6.80
2023-12-28T19:16:44.543Z,5.60
2023-12-28T19:19:12.903Z,5.50
2023-12-28T19:21:42.168Z,4.20
2023-12-28T19:24:09.886Z,3.80
2023-12-28T19:26:38.376Z,4.30
2023-12-28T19:29:06.226Z,3.40
2023-12-28T19:31:34.477Z,4.20
2023-12-28T19:34:02.778Z,4.70
2023-12-28T19:36:30.817Z,3.10
2023-12-28T19:38:59.961Z,3.30
2023-12-28T19:41:28.714Z,3.20
2023-12-28T19:43:57.013Z,3.00
2023-12-28T19:46:25.278Z,4.00
2023-12-28T19:48:53.365Z,3.80
2023-12-28T19:51:22.332Z,4.10
2023-12-28T19:53:50.457Z,4.50
2023-12-28T19:56:18.631Z,7.70
2023-12-28T19:58:46.515Z,6.30
2023-12-28T20:01:15.288Z,5.70
2023-12-28T20:03:43.137Z,4.80
2023-12-28T20:06:11.389Z,7.30
2023-12-28T20:08:40.816Z,5.00
2023-12-28T20:11:10.039Z,6.10
2023-12-28T20:13:39.988Z,5.60
2023-12-28T20:16:08.172Z,7.20
2023-12-28T20:18:37.719Z,3.90
2023-12-28T20:21:05.800Z,3.20
2023-12-28T20:23:33.903Z,2.90
2023-12-28T20:26:01.758Z,3.60
2023-12-28T20:28:29.609Z,3.70
2023-12-28T20:30:58.875Z,3.00
2023-12-28T20:33:27.050Z,3.50
2023-12-28T20:35:55.371Z,4.90
2023-12-28T20:38:23.285Z,3.90
2023-12-28T20:40:53.291Z,3.20
2023-12-28T20:43:21.385Z,3.20
2023-12-28T20:45:49.285Z,3.70
2023-12-28T20:48:17.911Z,3.80
2023-12-28T20:50:46.454Z,3.80
2023-12-28T20:53:14.237Z,3.30
2023-12-28T20:55:43.007Z,3.80
2023-12-28T20:58:10.806Z,3.90
2023-12-28T21:00:38.632Z,3.60
2023-12-28T21:03:06.408Z,3.00
2023-12-28T21:05:34.775Z,3.80
2023-12-28T21:08:02.837Z,3.50
2023-12-28T21:10:33.487Z,3.60
2023-12-28T21:13:05.762Z,3.20
2023-12-28T21:15:34.365Z,3.50
2023-12-28T21:18:12.582Z,2.60
2023-12-28T21:21:02.044Z,3.80
2023-12-28T21:23:38.443Z,3.50
2023-12-28T21:26:06.768Z,3.60
2023-12-28T21:28:34.811Z,4.40
2023-12-28T21:31:03.536Z,3.40
2023-12-28T21:33:32.281Z,3.80
2023-12-28T21:36:01.704Z,3.50
2023-12-28T21:38:30.311Z,3.50
2023-12-28T21:40:58.681Z,3.00
2023-12-28T21:43:29.730Z,3.90
2023-12-28T21:45:58.071Z,3.00
2023-12-28T21:48:26.108Z,3.10
2023-12-28T21:50:54.444Z,3.60
2023-12-28T21:53:22.619Z,3.00
2023-12-28T21:55:50.437Z,3.20
2023-12-28T21:58:18.239Z,3.40
2023-12-28T22:00:46.988Z,3.80
2023-12-28T22:03:15.836Z,3.30
2023-12-28T22:05:43.931Z,3.30
2023-12-28T22:08:14.076Z,4.60
2023-12-28T22:10:43.646Z,3.60
2023-12-28T22:13:13.336Z,5.70
2023-12-28T22:15:41.444Z,4.30
2023-12-28T22:18:09.718Z,4.10
2023-12-28T22:20:37.970Z,5.20
2023-12-28T22:23:05.822Z,5.90
2023-12-28T22:25:33.947Z,4.60
2023-12-28T22:28:01.922Z,4.00
2023-12-28T22:30:33.209Z,4.40
2023-12-28T22:33:02.319Z,3.70
2023-12-28T22:35:30.673Z,4.10
2023-12-28T22:37:59.279Z,5.70
2023-12-28T22:40:27.198Z,4.00
2023-12-28T22:42:56.518Z,4.10
2023-12-28T22:45:24.677Z,4.40
2023-12-28T22:47:53.455Z,5.30
2023-12-28T22:50:21.506Z,4.70
2023-12-28T22:52:50.487Z,4.00
2023-12-28T22:55:18.598Z,4.40
2023-12-28T22:57:46.989Z,3.50
2023-12-28T23:00:22.464Z,5.50
2023-12-28T23:02:51.651Z,5.40
2023-12-28T23:05:20.297Z,4.40
2023-12-28T23:07:48.267Z,4.60
2023-12-28T23:10:17.396Z,6.70
2023-12-28T23:12:45.565Z,7.50
2023-12-28T23:15:13.499Z,7.80
2023-12-28T23:17:41.648Z,6.60
2023-12-28T23:20:11.222Z,6.30
2023-12-28T23:22:42.253Z,5.50
2023-12-28T23:25:10.152Z,7.70
2023-12-28T23:27:38.771Z,8.70
2023-12-28T23:30:11.088Z,5.70
2023-12-28T23:32:39.071Z,8.10
2023-12-28T23:35:08.114Z,6.50
2023-12-28T23:37:37.621Z,5.60
2023-12-28T23:40:07.006Z,5.40
2023-12-28T23:42:36.756Z,5.50
2023-12-28T23:45:05.962Z,4.70
2023-12-28T23:47:34.432Z,6.00
2023-12-28T23:50:02.301Z,6.30
2023-12-28T23:52:30.523Z,4.50
2023-12-28T23:54:58.372Z,3.90
2023-12-28T23:57:26.697Z,4.00
2023-12-28T23:59:54.565Z,4.40
